»·PEaware :: SWA400 KLAS-KSAN

SWA400 :: KLAS-KSAN

FLIGHT INFORMATION

Flight Status: Arrived
Operator:
Southwest Airlines
More flights by this operator :: More flights under this callsign
Pilot: Matthew M. (8235)
Aircraft: BOEING 737-800
(B738)
More flights by this aircraft type
Origin: KLAS McCarran Intl
United States
Destination: KSAN San Diego Intl-Lindbergh
United States
More flights between these airports :: More routes between these airports
Route: BOACH8 LVELL LUCKI1
File this flight plan on PilotEdge
Remarks: PBN / A1B1C1D1S1S2 DOF / 180111 OPR / SWA PER / C
Altitude:
(Current/Filed)
30,000ft
Speed:
(Current/Filed)
444kts
Departed: 11-Jan-18 02:58 PM
Arrived: 11-Jan-18 03:44 PM
Distance/Time
Traveled:
225nm/0:46
Distance/Time
To Go:
Arrived

Flight Plot

Page will automatically refresh every two minutes.

Flight plan parsing failed; only flown route is shown


Map Options




Map Legend


Flown Route
Filed Route
Departure Airport
Arrival Airport
Navaid (VOR, NDB)
Fix

Horizontal Profiles

Position Reports

Time Latitude Longitude Heading Altitude Ground
Speed
11-Jan-18 14:33 36.079925 -115.147121 57 2119ft 0kts
11-Jan-18 14:34 36.079925 -115.147121 57 2119ft 0kts
11-Jan-18 14:35 36.079925 -115.147121 57 2119ft 0kts
11-Jan-18 14:36 36.079925 -115.147121 57 2119ft 0kts
11-Jan-18 14:37 36.079925 -115.147121 57 2119ft 0kts
11-Jan-18 14:38 36.079925 -115.147121 57 2119ft 0kts
11-Jan-18 14:39 36.079925 -115.147121 57 2119ft 0kts
11-Jan-18 14:40 36.079925 -115.147121 57 2119ft 0kts
11-Jan-18 14:41 36.079925 -115.147121 57 2119ft 0kts
11-Jan-18 14:42 36.079925 -115.147121 57 2119ft 0kts
11-Jan-18 14:43 36.079925 -115.147120 57 2119ft 0kts
11-Jan-18 14:44 36.079925 -115.147121 57 2119ft 0kts
11-Jan-18 14:45 36.079528 -115.147874 62 2119ft 1kts
11-Jan-18 14:46 36.079035 -115.147384 151 2119ft 0kts
11-Jan-18 14:47 36.079035 -115.147384 151 2119ft 0kts
11-Jan-18 14:48 36.079035 -115.147384 151 2119ft 0kts
11-Jan-18 14:49 36.079035 -115.147384 151 2119ft 0kts
11-Jan-18 14:50 36.079035 -115.147384 151 2119ft 0kts
11-Jan-18 14:51 36.079035 -115.147384 151 2119ft 0kts
11-Jan-18 14:52 36.079035 -115.147384 151 2119ft 0kts
11-Jan-18 14:53 36.079035 -115.147384 151 2119ft 0kts
11-Jan-18 14:54 36.079035 -115.147384 151 2119ft 0kts
11-Jan-18 14:55 36.079035 -115.147384 151 2119ft 0kts
11-Jan-18 14:56 36.079035 -115.147384 151 2119ft 0kts
11-Jan-18 14:57 36.079035 -115.147384 151 2119ft 0kts
11-Jan-18 14:58 36.078336 -115.145200 94 2119ft 14kts
11-Jan-18 14:59 36.078249 -115.141074 88 2119ft 14kts
11-Jan-18 15:00 36.078259 -115.135199 91 2119ft 9kts
11-Jan-18 15:01 36.078263 -115.129631 88 2119ft 15kts
11-Jan-18 15:02 36.078281 -115.124125 87 2119ft 18kts
11-Jan-18 15:03 36.076458 -115.121472 212 2119ft 11kts
11-Jan-18 15:04 36.076440 -115.126682 269 2119ft 73kts
11-Jan-18 15:05 36.077906 -115.178774 271 3260ft 191kts
11-Jan-18 15:06 36.067342 -115.251564 231 4803ft 275kts
11-Jan-18 15:07 35.997130 -115.290226 200 7017ft 288kts
11-Jan-18 15:08 35.918499 -115.307878 188 9744ft 299kts
11-Jan-18 15:09 35.833004 -115.312452 178 12581ft 335kts
11-Jan-18 15:10 35.737814 -115.301465 179 15729ft 355kts
11-Jan-18 15:11 35.638301 -115.296104 187 18656ft 369kts
11-Jan-18 15:12 35.541162 -115.300108 187 19298ft 373kts
11-Jan-18 15:13 35.437116 -115.304198 187 20479ft 382kts
11-Jan-18 15:14 35.330095 -115.308407 188 23179ft 396kts
11-Jan-18 15:15 35.218443 -115.312790 189 25561ft 411kts
11-Jan-18 15:16 35.103443 -115.317274 190 28019ft 415kts
11-Jan-18 15:17 34.989251 -115.321779 190 30252ft 415kts
11-Jan-18 15:18 34.868646 -115.326592 188 30275ft 465kts
11-Jan-18 15:19 34.743678 -115.346617 207 30276ft 465kts
11-Jan-18 15:20 34.623360 -115.399742 206 30289ft 464kts
11-Jan-18 15:21 34.502716 -115.452329 206 30333ft 464kts
11-Jan-18 15:22 34.381857 -115.505124 206 30333ft 464kts
11-Jan-18 15:23 34.268087 -115.572075 218 30331ft 453kts
11-Jan-18 15:24 34.155650 -115.640821 208 30332ft 463kts
11-Jan-18 15:25 34.041462 -115.694510 208 30329ft 463kts
11-Jan-18 15:26 33.924827 -115.749457 208 30250ft 463kts
11-Jan-18 15:27 33.810324 -115.805598 208 30228ft 463kts
11-Jan-18 15:28 33.702202 -115.856910 208 30199ft 403kts
11-Jan-18 15:29 33.602783 -115.903431 209 29878ft 377kts
11-Jan-18 15:30 33.511309 -115.957217 233 26090ft 363kts
11-Jan-18 15:31 33.450270 -116.055916 240 25116ft 375kts
11-Jan-18 15:32 33.391675 -116.156704 240 24121ft 370kts
11-Jan-18 15:33 33.328785 -116.251936 221 23287ft 380kts
11-Jan-18 15:34 33.240508 -116.306802 211 20938ft 383kts
11-Jan-18 15:35 33.147391 -116.361215 210 18477ft 375kts
11-Jan-18 15:36 33.056505 -116.414373 209 16029ft 369kts
11-Jan-18 15:37 32.972589 -116.477253 222 13565ft 357kts
11-Jan-18 15:38 32.902842 -116.547758 222 11541ft 321kts
11-Jan-18 15:39 32.838094 -116.613044 222 9975ft 288kts
11-Jan-18 15:40 32.780043 -116.671798 227 8626ft 275kts
11-Jan-18 15:41 32.740963 -116.747438 241 7226ft 267kts
11-Jan-18 15:42 32.708000 -116.817466 247 6079ft 226kts
11-Jan-18 15:43 32.686398 -116.885893 251 4954ft 231kts
11-Jan-18 15:44 32.676112 -116.952720 285 3950ft 215kts
11-Jan-18 15:45 32.690538 -117.012246 287 3059ft 172kts
11-Jan-18 15:46 32.701718 -117.058395 287 2344ft 144kts
11-Jan-18 15:47 32.711971 -117.100705 288 1491ft 142kts
11-Jan-18 15:48 32.722102 -117.142470 288 685ft 140kts
11-Jan-18 15:49 32.732588 -117.185796 288 23ft 130kts
11-Jan-18 15:50 32.734984 -117.198395 214 17ft 3kts
11-Jan-18 15:51 32.734306 -117.197064 104 17ft 7kts
11-Jan-18 15:52 32.733834 -117.195714 192 19ft 5kts
11-Jan-18 15:53 32.733272 -117.196041 199 18ft 0kts

Navigation Log

Ident Type
Flight plan parsing failed, navigation log unavailable